サンパウロ/グアルーリョス の空港の天気 - METARとTAF

グアルーリョス国際空港 (サンパウロ) ( SBGR / GRU ) - ブラジル サンパウロ州サンパウロ市
飛行場実況気象(Metar)
観測時間12/08 02:00 BRT (12/08 05:00 UTC)
風向・風速静穏 0m/s
視程10km以上
天気現象
全天の4割程度の雲 雲底高度 700m
気温17℃
湿度100%
気圧1013hPa
METARSBGR 080500Z 00000KT 9999 SCT023 17/17 Q1013
過去の天気等 Google飛行場航空写真 Wunderground天気予報

過去48時間のMETAR

飛行場予報(TAF)
発表時間: 12/08 01:45 BRT (12/08 04:45 UTC)
予報対象時間: 8日3時 BRT ~ 9日9時 BRT
風向・風速東 3m/s
視程8000m
全天の8割程度の雲 雲底高度 520m
8日5時 BRT から 確率 30% で
風向・風速西 2m/s
視程3000m
天気現象散在した霧 もや
全天の8割程度の雲 雲底高度 210m
8日8時 BRT ~ 8日10時 BRT に徐々に
風向・風速南南西 3m/s
視程10km以上
全天の4割程度の雲 雲底高度 520m
8日13時 BRT ~ 8日15時 BRT に徐々に
視程10km以上
なし
8日16時 BRT ~ 8日18時 BRT に徐々に
風向・風速南東 1m/s
8日21時 BRT ~ 8日23時 BRT に徐々に
風向・風速北北東 3m/s
全天の4割程度の雲 雲底高度 610m
9日1時 BRT ~ 9日3時 BRT に徐々に
風向・風速北北西 1m/s
9日5時 BRT ~ 9日7時 BRT に徐々に
風向・風速西 2m/s
TAF SBGR 080445Z 0806/0912 09005KT 8000 BKN017 TN17/0806Z TX26/0817Z
PROB30 0808/0811 26003KT 3000 BCFG BR BKN007
BECMG 0811/0813 20005KT 9999 SCT017
BECMG 0816/0818 CAVOK
BECMG 0819/0821 14002KT
BECMG 0900/0902 03005KT SCT020
BECMG 0904/0906 34002KT
BECMG 0908/0910 27004KT RMK PGL